Time;durP1;ratioP1;P1;durP2;ratioP2;P2;SDS_P1;SDS_P2;PMS_P1;PMS_P2;Temp;Humidity;BMP_temperature;BMP_pressure;BME280_temperature;BME280_humidity;BME280_pressure;Samples;Min_cycle;Max_cycle;Signal;HPM_P1;HPM_P2
2021/06/11 00:01:04;;;;;;;5.35;4.85;;;;;;;13.77;81.85;99352.09;5032798;28;20064;-70
2021/06/11 00:03:30;;;;;;;5.65;5.03;;;;;;;13.72;82.11;99351.66;5016810;28;20068;-69
2021/06/11 00:05:56;;;;;;;6.72;5.15;;;;;;;13.69;82.21;99355.47;5014030;28;20384;-69
2021/06/11 00:08:21;;;;;;;6.10;5.50;;;;;;;13.70;82.18;99351.00;5006705;28;20085;-69
2021/06/11 00:10:48;;;;;;;7.22;5.45;;;;;;;13.74;82.22;99355.88;4994311;28;20077;-69
2021/06/11 00:13:13;;;;;;;5.85;5.28;;;;;;;13.75;82.44;99352.22;4994502;28;20492;-68
2021/06/11 00:15:39;;;;;;;6.03;5.43;;;;;;;13.77;82.14;99353.91;4992716;28;20092;-68
2021/06/11 00:18:05;;;;;;;5.70;4.82;;;;;;;13.79;82.13;99351.94;4994382;28;20042;-69
2021/06/11 00:20:32;;;;;;;5.90;5.30;;;;;;;13.79;82.27;99347.44;4994220;28;20040;-69
2021/06/11 00:22:57;;;;;;;5.35;4.75;;;;;;;13.80;82.14;99353.63;4992651;28;20050;-69
2021/06/11 00:25:24;;;;;;;4.97;4.45;;;;;;;13.81;82.06;99344.66;4992856;28;20034;-68
2021/06/11 00:27:59;;;;;;;5.57;4.90;;;;;;;13.76;82.00;99339.78;4994204;28;20038;-69
2021/06/11 00:30:26;;;;;;;7.03;5.32;;;;;;;13.78;82.26;99327.16;4992117;28;20557;-69
2021/06/11 00:32:51;;;;;;;6.03;4.78;;;;;;;13.74;81.75;99337.28;4993745;28;20444;-69
2021/06/11 00:35:17;;;;;;;6.03;4.30;;;;;;;13.72;82.01;99327.75;4994060;28;20122;-69
2021/06/11 00:37:43;;;;;;;5.65;4.47;;;;;;;13.69;81.99;99336.84;4993440;28;20376;-71
2021/06/11 00:40:10;;;;;;;4.80;4.20;;;;;;;13.74;81.87;99336.41;4994043;28;20392;-68
2021/06/11 00:42:37;;;;;;;4.40;4.00;;;;;;;13.72;81.94;99336.56;4994215;28;20447;-69
2021/06/11 00:45:04;;;;;;;5.30;4.40;;;;;;;13.74;81.94;99345.25;4993961;28;20495;-71
2021/06/11 00:47:30;;;;;;;;;;;;;;;13.71;81.86;99336.72;4994317;28;20031;-68
2021/06/11 00:49:57;;;;;;;4.40;4.00;;;;;;;13.71;81.89;99332.22;4993455;28;19967;-70
2021/06/11 00:52:23;;;;;;;4.53;4.05;;;;;;;13.71;81.67;99337.56;4993463;28;20073;-70
2021/06/11 00:54:49;;;;;;;5.40;4.40;;;;;;;13.73;81.95;99335.59;4993734;28;20091;-68
2021/06/11 00:57:15;;;;;;;4.35;3.95;;;;;;;13.75;81.44;99328.28;4992256;28;20498;-70
2021/06/11 00:59:43;;;;;;;4.85;4.30;;;;;;;13.63;81.85;99339.28;4992202;28;20344;-70
2021/06/11 01:02:10;;;;;;;4.50;4.10;;;;;;;13.64;81.86;99336.47;5020949;28;20040;-68
2021/06/11 01:04:36;;;;;;;5.18;4.28;;;;;;;13.63;81.86;99336.63;5031882;28;20116;-69
2021/06/11 01:07:02;;;;;;;4.80;4.30;;;;;;;13.60;81.97;99332.44;5032543;28;20137;-72
2021/06/11 01:09:29;;;;;;;4.43;4.03;;;;;;;13.56;82.08;99333.72;5033006;28;20488;-69
2021/06/11 01:11:55;;;;;;;5.38;4.25;;;;;;;13.54;82.13;99336.50;5032874;28;20094;-68
2021/06/11 01:14:21;;;;;;;5.35;4.25;;;;;;;13.53;82.20;99328.69;5032624;28;20116;-68
2021/06/11 01:16:53;;;;;;;4.97;4.00;;;;;;;13.56;81.88;99333.72;5031469;28;20037;-68
2021/06/11 01:19:22;;;;;;;5.40;4.40;;;;;;;13.50;81.92;99334.31;5031415;28;20049;-69
2021/06/11 01:21:57;;;;;;;4.80;4.05;;;;;;;13.55;81.92;99332.03;5031104;28;20034;-71
2021/06/11 01:24:30;;;;;;;5.47;4.35;;;;;;;13.59;81.81;99338.72;5031340;28;20086;-70
2021/06/11 01:26:57;;;;;;;5.93;4.50;;;;;;;13.61;81.64;99333.25;5032535;28;20125;-69
2021/06/11 01:29:27;;;;;;;5.03;4.53;;;;;;;13.61;81.52;99331.44;5031091;28;20100;-68
2021/06/11 01:32:02;;;;;;;4.68;4.28;;;;;;;13.65;81.43;99332.00;5031922;28;20128;-68
2021/06/11 01:34:34;;;;;;;4.65;3.75;;;;;;;13.59;80.97;99333.41;5032176;28;20091;-68
2021/06/11 01:37:05;;;;;;;4.30;3.90;;;;;;;13.55;80.97;99332.84;4998588;28;20078;-70
2021/06/11 01:39:32;;;;;;;3.90;3.50;;;;;;;13.53;80.96;99334.00;5031181;28;20120;-68
2021/06/11 01:41:59;;;;;;;3.85;3.45;;;;;;;13.53;80.97;99334.00;5030569;28;20606;-70
2021/06/11 01:44:26;;;;;;;3.88;3.40;;;;;;;13.54;80.90;99338.31;5030888;28;20383;-69
2021/06/11 01:46:55;;;;;;;4.30;3.63;;;;;;;13.50;80.88;99334.31;5032161;28;20621;-69
2021/06/11 01:49:22;;;;;;;4.32;3.50;;;;;;;13.50;80.81;99337.78;5031994;28;20454;-68
2021/06/11 01:51:48;;;;;;;7.07;4.90;;;;;;;13.48;80.92;99336.25;5030912;28;20045;-69
2021/06/11 01:54:15;;;;;;;4.10;3.60;;;;;;;13.49;80.75;99338.75;5030929;28;20363;-69
2021/06/11 01:56:41;;;;;;;3.42;3.13;;;;;;;13.46;80.92;99344.38;5030840;28;20037;-69
2021/06/11 01:59:07;;;;;;;3.58;3.08;;;;;;;13.44;80.68;99349.00;5030924;28;20038;-69
2021/06/11 02:01:35;;;;;;;4.00;3.30;;;;;;;13.50;80.39;99344.94;5000559;28;20350;-69
2021/06/11 02:04:02;;;;;;;4.50;3.20;;;;;;;13.46;80.30;99354.16;4996690;28;20040;-68
2021/06/11 02:06:28;;;;;;;3.08;2.78;;;;;;;13.46;80.53;99351.50;4992304;28;20042;-68
2021/06/11 02:08:56;;;;;;;4.10;2.80;;;;;;;13.51;80.29;99350.09;4992478;28;20123;-69
2021/06/11 02:11:22;;;;;;;3.72;3.20;;;;;;;13.49;80.14;99343.25;5007350;28;20033;-70
2021/06/11 02:13:53;;;;;;;3.58;2.90;;;;;;;13.44;80.05;99346.31;5005929;28;20045;-68
2021/06/11 02:16:21;;;;;;;3.33;2.83;;;;;;;13.45;80.05;99347.19;5007357;28;20174;-68
2021/06/11 02:18:47;;;;;;;4.68;3.40;;;;;;;13.42;80.11;99341.16;4981108;28;20537;-71
2021/06/11 02:21:13;;;;;;;3.25;2.95;;;;;;;13.41;80.17;99350.13;5010787;28;20084;-70
2021/06/11 02:23:40;;;;;;;2.95;2.67;;;;;;;13.43;80.14;99350.81;4996133;28;20042;-68
2021/06/11 02:26:09;;;;;;;3.03;2.73;;;;;;;13.45;79.87;99357.81;5001114;28;20038;-68
2021/06/11 02:28:35;;;;;;;5.43;3.08;;;;;;;13.44;79.70;99362.28;5009743;28;20050;-70
2021/06/11 02:31:02;;;;;;;3.00;2.80;;;;;;;13.43;79.87;99366.75;5008269;28;20046;-70
2021/06/11 02:33:27;;;;;;;3.53;3.20;;;;;;;13.43;79.75;99369.41;5009823;28;20471;-68
2021/06/11 02:35:54;;;;;;;2.92;2.65;;;;;;;13.46;79.94;99370.09;5007771;28;20029;-68
2021/06/11 02:38:21;;;;;;;3.08;2.75;;;;;;;13.46;79.91;99364.78;4998920;28;20684;-72
2021/06/11 02:40:51;;;;;;;3.92;2.97;;;;;;;13.43;79.76;99361.44;5003792;28;20061;-69
2021/06/11 02:43:20;;;;;;;3.03;2.72;;;;;;;13.41;79.94;99363.41;5002762;28;20356;-68
2021/06/11 02:46:20;;;;;;;3.20;2.90;;;;;;;13.43;79.96;99358.78;5001924;28;20170;-71
2021/06/11 02:48:52;;;;;;;3.70;3.30;;;;;;;13.45;79.99;99363.13;4992265;28;20472;-68
2021/06/11 02:51:26;;;;;;;3.28;2.95;;;;;;;13.43;80.23;99361.44;4992444;28;20125;-71
2021/06/11 02:53:53;;;;;;;4.07;3.05;;;;;;;13.42;80.24;99359.75;4997618;28;20144;-70
2021/06/11 02:56:23;;;;;;;3.88;3.20;;;;;;;13.42;80.30;99365.06;5010976;28;20049;-71
2021/06/11 02:58:54;;;;;;;3.55;3.25;;;;;;;13.40;80.28;99364.38;5003627;28;20034;-68
2021/06/11 03:01:21;;;;;;;3.30;3.00;;;;;;;13.39;80.48;99370.66;4998854;28;20033;-73
2021/06/11 03:03:47;;;;;;;3.50;3.20;;;;;;;13.38;80.70;99358.38;5001105;28;20030;-69
2021/06/11 03:06:17;;;;;;;5.53;3.40;;;;;;;13.36;80.57;99357.66;5011777;28;20079;-68
2021/06/11 03:08:44;;;;;;;4.35;3.25;;;;;;;13.36;80.92;99360.31;4996272;28;20056;-70
2021/06/11 03:11:13;;;;;;;4.82;3.17;;;;;;;13.33;81.24;99359.75;5010976;28;20038;-69
2021/06/11 03:13:41;;;;;;;6.10;3.38;;;;;;;13.35;80.95;99357.81;5012073;28;20475;-67
2021/06/11 03:16:08;;;;;;;3.95;3.13;;;;;;;13.34;81.01;99356.94;4996759;28;20160;-70
2021/06/11 03:18:43;;;;;;;3.53;3.13;;;;;;;13.31;81.15;99362.56;5012933;28;20502;-69
2021/06/11 03:21:24;;;;;;;4.90;3.63;;;;;;;13.31;81.36;99362.56;4994779;28;20117;-69
2021/06/11 03:23:54;;;;;;;3.45;3.05;;;;;;;13.31;81.23;99357.25;4997640;28;20459;-68
2021/06/11 03:26:24;;;;;;;3.70;3.40;;;;;;;13.32;81.24;99361.59;4994364;28;20057;-68
2021/06/11 03:28:53;;;;;;;4.70;3.33;;;;;;;13.34;81.01;99361.44;4994535;28;20054;-68
2021/06/11 03:31:25;;;;;;;3.60;3.30;;;;;;;13.34;81.28;99367.56;4995757;28;20042;-70
2021/06/11 03:33:59;;;;;;;3.45;3.10;;;;;;;13.34;81.11;99372.88;4996785;28;20141;-69
2021/06/11 03:36:38;;;;;;;4.75;3.42;;;;;;;13.38;81.25;99374.31;4996453;28;20128;-70
2021/06/11 03:39:07;;;;;;;6.68;4.53;;;;;;;13.40;81.21;99372.34;5004740;28;20069;-69
2021/06/11 03:41:35;;;;;;;16.17;14.48;;;;;;;13.48;80.97;99373.44;4999512;28;20052;-68
2021/06/11 03:44:03;;;;;;;4.32;3.30;;;;;;;13.57;80.94;99376.06;5012455;28;21075;-70
2021/06/11 03:46:31;;;;;;;4.22;3.40;;;;;;;13.63;80.59;99377.31;5006056;28;20038;-69
2021/06/11 03:48:57;;;;;;;;;;;;;;;13.59;80.67;99373.28;4997772;28;20034;-70
2021/06/11 03:51:25;;;;;;;3.50;3.20;;;;;;;13.54;80.75;99376.34;5000869;28;19932;-69
2021/06/11 03:53:52;;;;;;;3.40;3.03;;;;;;;13.59;80.63;99373.28;5008773;28;20359;-73
2021/06/11 03:56:19;;;;;;;4.28;3.45;;;;;;;13.68;80.54;99379.53;5001774;28;20132;-72
2021/06/11 03:58:46;;;;;;;3.65;3.35;;;;;;;13.78;80.48;99374.19;5001588;28;20145;-69
2021/06/11 04:01:18;;;;;;;5.13;3.28;;;;;;;13.82;80.44;99379.06;4984904;28;20124;-69
2021/06/11 04:03:44;;;;;;;3.47;2.90;;;;;;;13.86;80.04;99376.94;4997253;28;20053;-69
2021/06/11 04:06:17;;;;;;;4.32;3.50;;;;;;;13.88;79.95;99374.97;4994802;28;20510;-68
2021/06/11 04:08:43;;;;;;;3.92;3.25;;;;;;;13.89;79.80;99376.66;4997850;28;20049;-69
2021/06/11 04:11:13;;;;;;;3.88;3.47;;;;;;;13.89;79.92;99379.31;4994332;28;20038;-72
2021/06/11 04:13:52;;;;;;;3.97;3.67;;;;;;;13.91;79.91;99382.66;4993941;28;20065;-68
2021/06/11 04:16:22;;;;;;;5.68;3.60;;;;;;;13.87;79.96;99374.13;5000127;28;20041;-71
2021/06/11 04:18:50;;;;;;;3.60;3.30;;;;;;;13.95;80.04;99384.03;5002883;28;20062;-71
2021/06/11 04:21:20;;;;;;;4.57;3.47;;;;;;;14.08;79.69;99376.56;4996622;28;20037;-70
2021/06/11 04:23:47;;;;;;;3.80;3.50;;;;;;;14.16;79.22;99381.13;5003461;28;20061;-71
2021/06/11 04:26:15;;;;;;;4.17;3.60;;;;;;;14.21;79.09;99375.34;5007784;28;20097;-71
2021/06/11 04:28:41;;;;;;;4.13;3.72;;;;;;;14.22;79.10;99377.03;4989337;28;20126;-70
2021/06/11 04:31:07;;;;;;;4.10;3.75;;;;;;;14.19;79.05;99372.84;4995109;28;20430;-71
2021/06/11 04:33:35;;;;;;;4.28;3.53;;;;;;;14.08;79.53;99371.22;5000013;28;20133;-70
2021/06/11 04:36:01;;;;;;;4.70;3.95;;;;;;;14.14;79.56;99379.59;4991575;28;20460;-72
2021/06/11 04:38:28;;;;;;;4.30;3.90;;;;;;;14.18;79.71;99381.81;5001683;28;20038;-69
2021/06/11 04:40:53;;;;;;;4.28;3.88;;;;;;;14.18;79.82;99378.31;5002758;28;20033;-70
2021/06/11 04:43:23;;;;;;;9.18;8.20;;;;;;;14.27;79.63;99380.09;5011912;28;20068;-71
2021/06/11 04:45:49;;;;;;;4.13;3.83;;;;;;;14.30;79.55;99385.09;5007366;28;20399;-75
2021/06/11 04:48:15;;;;;;;4.55;4.13;;;;;;;14.22;79.48;99379.69;5006015;28;20125;-73
2021/06/11 04:50:41;;;;;;;5.00;4.45;;;;;;;14.27;79.51;99380.09;4997180;28;20034;-69
2021/06/11 04:53:07;;;;;;;6.00;4.85;;;;;;;14.27;79.26;99369.44;5003588;28;20117;-74
2021/06/11 04:55:33;;;;;;;4.35;3.92;;;;;;;14.28;79.31;99381.75;5013146;28;20467;-71
2021/06/11 04:57:59;;;;;;;6.63;4.25;;;;;;;14.22;79.54;99385.03;5008513;28;20034;-69
2021/06/11 05:00:25;;;;;;;5.50;4.70;;;;;;;14.19;80.02;99383.50;5005576;28;20381;-72
2021/06/11 05:02:51;;;;;;;4.38;3.97;;;;;;;14.19;80.04;99382.63;4996286;28;20029;-73
2021/06/11 05:05:17;;;;;;;6.07;4.63;;;;;;;14.17;79.87;99384.63;4996393;28;20173;-71
2021/06/11 05:07:43;;;;;;;5.28;4.55;;;;;;;14.18;79.92;99388.94;4993045;28;20471;-69
2021/06/11 05:10:09;;;;;;;5.10;4.45;;;;;;;14.14;80.10;99383.09;5004376;28;20098;-71
2021/06/11 05:12:35;;;;;;;4.93;4.53;;;;;;;14.19;80.23;99378.19;4991332;28;20044;-72
2021/06/11 05:15:03;;;;;;;5.43;4.88;;;;;;;14.24;80.01;99375.03;4995532;28;20038;-70
2021/06/11 05:17:29;;;;;;;4.97;4.47;;;;;;;14.23;79.75;99373.38;4981165;28;20033;-75
2021/06/11 05:19:55;;;;;;;6.00;4.20;;;;;;;14.27;79.87;99373.91;5004444;28;20038;-72
2021/06/11 05:22:21;;;;;;;4.53;4.13;;;;;;;14.43;79.73;99373.25;5012120;28;20037;-71
2021/06/11 05:24:48;;;;;;;5.50;4.95;;;;;;;14.42;79.54;99371.56;5024930;28;20467;-70
2021/06/11 05:27:15;;;;;;;5.07;4.57;;;;;;;14.50;79.49;99363.69;5004833;28;20129;-71
2021/06/11 05:29:41;;;;;;;4.70;4.30;;;;;;;14.46;79.45;99365.81;5000951;28;20035;-72
2021/06/11 05:32:07;;;;;;;5.55;5.05;;;;;;;14.55;79.00;99380.88;5014199;28;20034;-71
2021/06/11 05:34:33;;;;;;;5.20;4.80;;;;;;;14.58;79.14;99371.75;5006316;28;20395;-70
2021/06/11 05:36:58;;;;;;;5.20;4.70;;;;;;;14.66;78.89;99369.19;5011757;28;20049;-70
2021/06/11 05:39:24;;;;;;;5.20;4.70;;;;;;;14.74;78.71;99372.91;5012352;28;20128;-72
2021/06/11 05:41:50;;;;;;;6.40;5.10;;;;;;;14.89;78.60;99382.03;5010010;28;20045;-71
2021/06/11 05:44:16;;;;;;;5.50;5.00;;;;;;;14.87;78.36;99373.38;5008827;28;20041;-71
2021/06/11 05:46:42;;;;;;;5.32;4.82;;;;;;;14.80;78.49;99370.47;5000902;28;20030;-70
2021/06/11 05:49:08;;;;;;;4.82;4.40;;;;;;;14.81;78.34;99371.31;4998237;28;20040;-71
2021/06/11 05:51:33;;;;;;;5.40;4.90;;;;;;;14.78;78.72;99367.13;5010683;28;20042;-70
2021/06/11 05:54:00;;;;;;;5.50;4.75;;;;;;;14.77;78.58;99369.97;4994691;28;20041;-76
2021/06/11 05:56:27;;;;;;;5.07;4.57;;;;;;;14.77;78.85;99375.28;4991552;28;20060;-71
2021/06/11 05:58:53;;;;;;;5.45;4.95;;;;;;;14.66;79.27;99369.19;5002506;28;20042;-72
2021/06/11 06:01:19;;;;;;;5.80;5.25;;;;;;;14.68;79.14;99369.06;5011848;28;20349;-72
2021/06/11 06:03:45;;;;;;;5.10;4.70;;;;;;;14.68;79.35;99367.22;4999852;28;20479;-73
2021/06/11 06:06:10;;;;;;;5.15;4.65;;;;;;;14.69;79.33;99374.22;5011245;28;20450;-72
2021/06/11 06:08:36;;;;;;;6.15;5.53;;;;;;;14.64;79.79;99378.28;5011647;28;20037;-70
2021/06/11 06:11:02;;;;;;;6.10;5.47;;;;;;;14.59;80.31;99386.72;5011583;28;20123;-70
2021/06/11 06:13:28;;;;;;;6.70;5.97;;;;;;;14.51;80.71;99389.31;5020310;28;20425;-72
2021/06/11 06:15:54;;;;;;;6.80;6.20;;;;;;;14.60;81.18;99385.72;5031290;28;20124;-73
2021/06/11 06:18:20;;;;;;;6.25;5.65;;;;;;;14.60;80.50;99392.88;5032012;28;20068;-71
2021/06/11 06:20:46;;;;;;;6.57;6.07;;;;;;;14.49;80.71;99391.28;5025560;28;20101;-70
2021/06/11 06:23:13;;;;;;;7.00;6.30;;;;;;;14.52;80.59;99389.16;5010972;28;20036;-75
2021/06/11 06:25:39;;;;;;;8.98;7.53;;;;;;;14.47;81.09;99393.28;4994100;28;20074;-70
2021/06/11 06:28:05;;;;;;;8.73;7.93;;;;;;;14.45;81.12;99401.38;5010557;28;20037;-71
2021/06/11 06:30:31;;;;;;;8.88;7.93;;;;;;;14.52;81.26;99393.66;5009431;28;20025;-71
2021/06/11 06:32:57;;;;;;;9.52;8.63;;;;;;;14.45;81.59;99395.22;5005972;28;20042;-70
2021/06/11 06:35:23;;;;;;;8.95;7.60;;;;;;;14.51;81.58;99387.47;4999466;28;20042;-71
2021/06/11 06:37:49;;;;;;;8.77;7.88;;;;;;;14.58;81.79;99382.41;5002817;28;20034;-71
2021/06/11 06:40:15;;;;;;;8.18;7.47;;;;;;;14.54;81.67;99386.34;5009432;28;20042;-73
2021/06/11 06:42:42;;;;;;;8.73;7.93;;;;;;;14.56;81.67;99379.88;5013646;28;20069;-70
2021/06/11 06:45:13;;;;;;;7.57;6.88;;;;;;;14.57;81.64;99386.88;5015845;28;20347;-73
2021/06/11 06:47:45;;;;;;;7.57;6.57;;;;;;;14.59;81.38;99392.03;4996594;28;20027;-71
2021/06/11 06:50:16;;;;;;;8.07;7.28;;;;;;;14.61;81.50;99392.72;4994550;28;20066;-72
2021/06/11 06:52:43;;;;;;;8.70;7.90;;;;;;;14.62;81.68;99398.91;4997165;28;20479;-70
2021/06/11 06:55:09;;;;;;;8.07;7.38;;;;;;;14.62;81.50;99391.75;5013778;28;20065;-71
2021/06/11 06:57:35;;;;;;;9.57;8.05;;;;;;;14.67;81.79;99394.00;5015222;28;20036;-71
2021/06/11 07:00:03;;;;;;;8.50;7.78;;;;;;;14.64;81.58;99387.13;5009321;28;20034;-72
2021/06/11 07:02:28;;;;;;;8.52;7.65;;;;;;;14.79;81.48;99383.94;5010861;28;20064;-74
2021/06/11 07:04:54;;;;;;;8.57;7.78;;;;;;;14.89;81.14;99382.03;5010876;28;20029;-71
2021/06/11 07:07:20;;;;;;;9.18;8.27;;;;;;;15.11;80.82;99383.38;4999782;28;20084;-71
2021/06/11 07:09:46;;;;;;;8.68;7.88;;;;;;;15.28;80.64;99389.66;4999235;28;20077;-72
2021/06/11 07:12:12;;;;;;;8.13;7.32;;;;;;;15.33;80.06;99366.03;5004652;28;20034;-72
2021/06/11 07:14:38;;;;;;;8.73;7.72;;;;;;;15.35;79.81;99380.06;4996648;28;20541;-72
2021/06/11 07:17:04;;;;;;;7.97;7.28;;;;;;;15.44;79.74;99369.44;5000289;28;20364;-72
2021/06/11 07:19:31;;;;;;;8.48;7.00;;;;;;;15.51;79.55;99375.81;5002099;28;20069;-70
2021/06/11 07:21:57;;;;;;;8.00;7.10;;;;;;;15.58;79.42;99373.38;5003264;28;20060;-71
2021/06/11 07:24:23;;;;;;;7.40;6.78;;;;;;;15.55;79.18;99379.00;5010258;28;20058;-72
2021/06/11 07:26:49;;;;;;;7.00;6.40;;;;;;;15.50;79.12;99376.78;4995194;28;20039;-71
2021/06/11 07:29:14;;;;;;;7.00;6.38;;;;;;;15.47;79.18;99375.28;5011754;28;20041;-71
2021/06/11 07:31:40;;;;;;;6.88;6.25;;;;;;;15.46;79.46;99375.44;5014150;28;20046;-72
2021/06/11 07:34:06;;;;;;;8.00;6.57;;;;;;;15.39;79.91;99375.25;5009361;28;20057;-73
2021/06/11 07:36:34;;;;;;;6.53;5.93;;;;;;;15.44;79.92;99380.94;5002688;28;20034;-73
2021/06/11 07:39:00;;;;;;;6.88;6.18;;;;;;;15.44;79.75;99378.28;5002073;28;20034;-72
2021/06/11 07:41:26;;;;;;;6.47;5.78;;;;;;;15.50;79.65;99384.78;5004430;28;20597;-72
2021/06/11 07:43:53;;;;;;;6.20;5.60;;;;;;;15.55;79.37;99385.16;5003687;28;20113;-73
2021/06/11 07:46:20;;;;;;;5.60;5.10;;;;;;;15.65;79.51;99387.72;5004104;28;20034;-73
2021/06/11 07:48:46;;;;;;;6.90;6.28;;;;;;;15.64;79.31;99396.72;5004530;28;20072;-75
2021/06/11 07:51:13;;;;;;;6.20;4.97;;;;;;;15.67;79.28;99394.56;5003347;28;20038;-73
2021/06/11 07:53:40;;;;;;;5.72;5.22;;;;;;;15.68;79.13;99392.75;5002209;28;20121;-74
2021/06/11 07:56:06;;;;;;;8.27;7.47;;;;;;;15.69;79.05;99391.75;4997724;28;20080;-73
2021/06/11 07:58:32;;;;;;;6.20;5.70;;;;;;;15.68;78.91;99384.75;5010251;28;20026;-74
2021/06/11 08:00:58;;;;;;;6.10;5.60;;;;;;;15.67;79.54;99399.88;5005401;28;20029;-73
2021/06/11 08:03:24;;;;;;;5.60;5.10;;;;;;;15.61;79.38;99391.69;5006016;28;20034;-75
2021/06/11 08:05:50;;;;;;;5.85;5.13;;;;;;;15.68;79.02;99387.41;5006270;28;20042;-73
2021/06/11 08:08:16;;;;;;;4.80;4.40;;;;;;;15.66;78.67;99389.38;4995599;28;20045;-72
2021/06/11 08:10:42;;;;;;;5.30;4.80;;;;;;;15.57;79.01;99393.84;5004386;28;20096;-74
2021/06/11 08:13:08;;;;;;;5.75;5.25;;;;;;;15.58;79.09;99389.34;4999983;28;20467;-74
2021/06/11 08:15:35;;;;;;;5.60;4.85;;;;;;;15.53;79.18;99384.50;5003423;28;20041;-74
2021/06/11 08:18:01;;;;;;;5.47;4.60;;;;;;;15.66;78.93;99387.56;5000793;28;20615;-74
2021/06/11 08:20:27;;;;;;;5.97;5.43;;;;;;;15.58;78.79;99395.50;5004987;28;20608;-74
2021/06/11 08:22:53;;;;;;;8.75;7.70;;;;;;;15.52;79.01;99396.13;5002253;28;20049;-75
2021/06/11 08:25:22;;;;;;;7.13;6.22;;;;;;;15.55;78.86;99400.31;5002766;28;20034;-74
2021/06/11 08:27:48;;;;;;;9.40;6.00;;;;;;;15.47;79.17;99399.28;5003724;28;20030;-72
2021/06/11 08:30:14;;;;;;;10.30;7.57;;;;;;;15.38;79.14;99408.22;5003201;28;20040;-75
2021/06/11 08:32:40;;;;;;;8.98;7.43;;;;;;;15.36;79.54;99403.06;5003064;28;20030;-75
2021/06/11 08:35:08;;;;;;;8.00;7.25;;;;;;;15.48;79.75;99400.13;5011307;28;20042;-73
2021/06/11 08:37:34;;;;;;;7.78;6.70;;;;;;;15.44;79.28;99409.41;5000634;28;20065;-75
2021/06/11 08:40:02;;;;;;;9.90;8.27;;;;;;;15.39;79.72;99403.72;5002605;28;20112;-74
2021/06/11 08:42:31;;;;;;;10.57;9.48;;;;;;;15.40;79.61;99408.06;5004858;28;20383;-74
2021/06/11 08:44:59;;;;;;;10.02;9.00;;;;;;;15.42;79.88;99411.41;4997810;28;20034;-74
2021/06/11 08:47:28;;;;;;;9.18;8.30;;;;;;;15.50;79.61;99400.78;4995975;28;20125;-74
2021/06/11 08:49:58;;;;;;;9.88;8.95;;;;;;;15.32;79.65;99407.00;4994036;28;20084;-73
2021/06/11 08:52:24;;;;;;;9.13;8.23;;;;;;;15.32;79.97;99411.50;4993551;28;20034;-71
2021/06/11 08:54:51;;;;;;;10.15;9.10;;;;;;;15.32;80.48;99408.84;5008147;28;20052;-75
2021/06/11 08:57:17;;;;;;;11.00;9.93;;;;;;;15.41;80.27;99413.22;5011478;28;20065;-73
2021/06/11 08:59:46;;;;;;;11.75;10.55;;;;;;;15.42;80.33;99416.75;5013188;28;20156;-73
2021/06/11 09:02:12;;;;;;;12.20;11.10;;;;;;;15.47;80.23;99409.09;4999022;28;20030;-70
2021/06/11 09:04:47;;;;;;;12.88;11.63;;;;;;;15.48;80.03;99416.13;5001914;28;20070;-72
2021/06/11 09:07:25;;;;;;;12.65;11.35;;;;;;;15.54;79.69;99420.81;4997906;28;20041;-75
2021/06/11 09:10:04;;;;;;;13.20;11.90;;;;;;;15.62;79.49;99404.84;5001454;28;20045;-74
2021/06/11 09:12:30;;;;;;;13.40;12.02;;;;;;;15.63;79.15;99414.53;4993335;28;20034;-73
2021/06/11 09:14:58;;;;;;;13.27;11.88;;;;;;;15.53;79.66;99408.47;5015875;28;20498;-73
2021/06/11 09:17:45;;;;;;;13.90;12.50;;;;;;;15.53;79.71;99409.31;5007210;28;20034;-73
2021/06/11 09:20:26;;;;;;;17.27;13.63;;;;;;;15.57;79.36;99407.16;4993073;28;20042;-76
2021/06/11 09:22:57;;;;;;;13.32;12.02;;;;;;;15.46;79.28;99420.75;4993125;28;20045;-74
2021/06/11 09:25:45;;;;;;;14.65;12.02;;;;;;;15.32;79.57;99406.19;4992818;28;20085;-77
2021/06/11 09:28:23;;;;;;;13.57;12.02;;;;;;;15.19;79.89;99404.75;4993424;28;20077;-76
2021/06/11 09:30:49;;;;;;;;;;;;;;;15.14;80.28;99400.88;4993003;28;20434;-74
2021/06/11 09:33:17;;;;;;;15.00;12.63;;;;;;;15.24;80.38;99414.09;4992555;28;19922;-76
2021/06/11 09:35:58;;;;;;;16.35;12.98;;;;;;;15.46;80.39;99402.91;4992231;28;20096;-73
2021/06/11 09:38:26;;;;;;;17.88;15.25;;;;;;;15.52;79.53;99417.47;4991274;28;20034;-77
2021/06/11 09:40:58;;;;;;;17.10;14.13;;;;;;;15.48;79.73;99408.94;4991248;28;20085;-75
2021/06/11 09:43:29;;;;;;;15.85;13.07;;;;;;;15.51;79.66;99410.47;4992016;28;20043;-73
2021/06/11 09:46:10;;;;;;;14.07;12.38;;;;;;;15.57;79.18;99409.81;4990796;28;20142;-72
2021/06/11 09:48:48;;;;;;;16.35;13.55;;;;;;;15.49;79.48;99413.28;4992393;28;20042;-72
2021/06/11 09:51:23;;;;;;;17.17;13.65;;;;;;;15.57;79.32;99411.66;4992460;28;20049;-77
2021/06/11 09:53:50;;;;;;;15.07;13.15;;;;;;;15.55;79.53;99406.47;4992250;28;20038;-75
2021/06/11 09:56:25;;;;;;;15.55;13.93;;;;;;;15.52;79.54;99414.78;4992514;28;20046;-71
2021/06/11 09:58:53;;;;;;;17.98;13.68;;;;;;;15.48;79.37;99416.94;4999635;28;20030;-72
2021/06/11 10:01:19;;;;;;;16.80;14.35;;;;;;;15.51;79.71;99421.13;4993508;28;20422;-73
2021/06/11 10:03:48;;;;;;;16.90;13.90;;;;;;;15.56;79.38;99408.16;5001387;28;20077;-73
2021/06/11 10:06:16;;;;;;;18.42;14.15;;;;;;;15.72;79.28;99422.59;4990791;28;20038;-72
2021/06/11 10:08:45;;;;;;;19.65;14.88;;;;;;;15.67;79.52;99415.06;4991051;28;20050;-73
2021/06/11 10:11:16;;;;;;;16.88;14.38;;;;;;;15.74;79.42;99415.25;4992535;28;20133;-72
2021/06/11 10:13:42;;;;;;;15.88;13.65;;;;;;;15.83;78.95;99409.84;4990630;28;20042;-72
2021/06/11 10:16:10;;;;;;;19.27;14.63;;;;;;;15.82;79.02;99413.50;4991465;28;20436;-70
2021/06/11 10:18:36;;;;;;;;;;;;;;;15.76;79.17;99410.59;4992476;28;20045;-73
2021/06/11 10:21:03;;;;;;;17.35;13.45;;;;;;;15.83;79.19;99422.34;4991676;28;19914;-73
2021/06/11 10:23:31;;;;;;;22.00;15.65;;;;;;;15.87;79.25;99420.19;4991756;28;20081;-75
2021/06/11 10:25:58;;;;;;;19.05;14.27;;;;;;;15.83;79.25;99425.00;4991616;28;20608;-74
2021/06/11 10:28:26;;;;;;;16.60;14.43;;;;;;;15.80;79.47;99427.94;4991611;28;20046;-75
2021/06/11 10:30:58;;;;;;;17.70;14.40;;;;;;;15.87;79.34;99426.34;4974244;28;20030;-71
2021/06/11 10:33:43;;;;;;;16.73;14.35;;;;;;;15.93;79.22;99431.06;5002205;28;20058;-71
2021/06/11 10:36:36;;;;;;;21.30;15.50;;;;;;;15.91;79.33;99426.88;5010725;28;20419;-70
2021/06/11 10:39:11;;;;;;;17.33;15.43;;;;;;;15.91;79.70;99432.22;4999497;28;20410;-71
2021/06/11 10:41:55;;;;;;;18.50;14.85;;;;;;;15.84;79.63;99432.84;5011936;28;20037;-72
2021/06/11 10:44:42;;;;;;;18.90;15.23;;;;;;;15.92;79.76;99433.88;5010809;28;20517;-73
2021/06/11 10:47:18;;;;;;;17.85;14.38;;;;;;;16.04;79.45;99437.09;5008219;28;20451;-72
2021/06/11 10:50:12;;;;;;;19.77;15.68;;;;;;;16.10;79.30;99441.78;5011259;28;20033;-70
2021/06/11 10:52:45;;;;;;;20.20;15.02;;;;;;;16.04;79.15;99431.75;4992303;28;20125;-72
2021/06/11 10:55:14;;;;;;;20.27;15.07;;;;;;;16.05;79.42;99439.63;4992963;28;20066;-70
2021/06/11 10:58:05;;;;;;;19.48;15.85;;;;;;;16.09;79.29;99430.31;5006510;28;20061;-72
2021/06/11 11:00:41;;;;;;;21.80;15.52;;;;;;;16.08;79.30;99428.63;5008705;28;20057;-73
2021/06/11 11:03:30;;;;;;;20.98;15.82;;;;;;;16.14;79.43;99424.50;5010851;28;20030;-72
2021/06/11 11:05:56;;;;;;;22.10;15.63;;;;;;;16.21;79.19;99428.16;4998813;28;20084;-72
2021/06/11 11:08:23;;;;;;;19.73;15.98;;;;;;;16.22;79.24;99429.03;5007657;28;20057;-73
2021/06/11 11:10:54;;;;;;;23.63;16.02;;;;;;;16.22;79.24;99421.00;5016694;28;20352;-71
2021/06/11 11:13:26;;;;;;;22.10;16.42;;;;;;;16.25;79.30;99408.19;5000408;28;20041;-77
2021/06/11 11:15:55;;;;;;;25.15;17.55;;;;;;;16.27;79.54;99416.84;5002215;28;20026;-70
2021/06/11 11:18:40;;;;;;;23.25;16.98;;;;;;;16.44;79.33;99417.75;5006976;28;20037;-74
2021/06/11 11:21:29;;;;;;;24.33;16.75;;;;;;;16.50;78.71;99421.59;5003982;28;20054;-73
2021/06/11 11:24:00;;;;;;;23.05;17.02;;;;;;;16.48;78.89;99412.91;5010700;28;20135;-74
2021/06/11 11:26:48;;;;;;;25.58;17.75;;;;;;;16.48;79.18;99419.06;5004272;28;20038;-72
2021/06/11 11:29:18;;;;;;;25.83;17.48;;;;;;;16.49;78.82;99417.25;5001769;28;20034;-73
2021/06/11 11:31:47;;;;;;;22.75;17.70;;;;;;;16.48;79.25;99423.59;5003596;28;20038;-70
2021/06/11 11:34:14;;;;;;;22.55;17.80;;;;;;;16.48;79.50;99423.59;5002663;28;20046;-74
2021/06/11 11:36:40;;;;;;;28.83;18.42;;;;;;;16.44;79.45;99416.91;5004467;28;20033;-74
2021/06/11 11:39:08;;;;;;;31.00;18.63;;;;;;;16.40;79.76;99415.56;5004091;28;20053;-72